Time;durP1;ratioP1;P1;durP2;ratioP2;P2;SDS_P1;SDS_P2;PMS_P1;PMS_P2;Temp;Humidity;BMP_temperature;BMP_pressure;BME280_temperature;BME280_humidity;BME280_pressure;Samples;Min_cycle;Max_cycle;Signal;HPM_P1;HPM_P2
2022/12/01 00:00:11;;;;;;;;;;;;;;;;;;4976673;28;19922;-95
2022/12/01 00:02:37;;;;;;;;;;;;;;;;;;4984889;28;19925;-94
2022/12/01 00:05:03;;;;;;;;;;;;;;;;;;4976002;28;19922;-95
2022/12/01 00:07:30;;;;;;;;;;;;;;;;;;4992134;28;19926;-94
2022/12/01 00:12:43;;;;;;;;;;;;;;;;;;4992247;28;20384;-94
2022/12/01 00:15:12;;;;;;;;;;;;;;;;;;4993612;28;19922;-95
2022/12/01 00:17:44;;;;;;;;;;;;;;;;;;4996864;28;19922;-94
2022/12/01 00:20:11;;;;;;;;;;;;;;;;;;4979837;28;19922;-94
2022/12/01 00:22:40;;;;;;;;;;;;;;;;;;4996479;28;19944;-96
2022/12/01 00:25:06;;;;;;;;;;;;;;;;;;4979709;28;20369;-96
2022/12/01 00:27:32;;;;;;;;;;;;;;;;;;4979546;28;19930;-95
2022/12/01 00:29:59;;;;;;;;;;;;;;;;;;4995942;28;19937;-96
2022/12/01 00:32:26;;;;;;;;;;;;;;;;;;4979608;28;20277;-95
2022/12/01 00:34:53;;;;;;;;;;;;;;;;;;4996082;28;19922;-96
2022/12/01 00:37:19;;;;;;;;;;;;;;;;;;4979811;28;20285;-96
2022/12/01 00:39:45;;;;;;;;;;;;;;;;;;4979328;28;19922;-94
2022/12/01 00:42:11;;;;;;;;;;;;;;;;;;4979274;28;19937;-95
2022/12/01 00:44:36;;;;;;;;;;;;;;;;;;4978861;28;20262;-95
2022/12/01 00:47:02;;;;;;;;;;;;;;;;;;4978687;28;19929;-96
2022/12/01 00:49:28;;;;;;;;;;;;;;;;;;4979227;28;20057;-96
2022/12/01 00:51:54;;;;;;;;;;;;;;;;;;4979236;28;19929;-95
2022/12/01 00:54:20;;;;;;;;;;;;;;;;;;4979026;28;19968;-96
2022/12/01 00:56:46;;;;;;;;;;;;;;;;;;4978802;28;19925;-95
2022/12/01 00:59:12;;;;;;;;;;;;;;;;;;4979145;28;19929;-96
2022/12/01 01:01:38;;;;;;;;;;;;;;;;;;4978788;28;19921;-95
2022/12/01 01:04:04;;;;;;;;;;;;;;;;;;4978945;28;19995;-96
2022/12/01 01:06:30;;;;;;;;;;;;;;;;;;4978832;28;19922;-95
2022/12/01 01:08:56;;;;;;;;;;;;;;;;;;4979032;28;19926;-95
2022/12/01 01:11:22;;;;;;;;;;;;;;;;;;4978947;28;20289;-96
2022/12/01 01:13:48;;;;;;;;;;;;;;;;;;4979043;28;20017;-96
2022/12/01 01:16:14;;;;;;;;;;;;;;;;;;4978450;28;20009;-96
2022/12/01 01:18:40;;;;;;;;;;;;;;;;;;4978850;28;19921;-95
2022/12/01 01:21:06;;;;;;;;;;;;;;;;;;4979246;28;19925;-95
2022/12/01 01:23:35;;;;;;;;;;;;;;;;;;4995168;28;19922;-95
2022/12/01 01:26:02;;;;;;;;;;;;;;;;;;4994741;28;19928;-95
2022/12/01 01:28:28;;;;;;;;;;;;;;;;;;4977545;28;19925;-96
2022/12/01 01:30:53;;;;;;;;;;;;;;;;;;4978647;28;19940;-96
2022/12/01 01:33:23;;;;;;;;;;;;;;;;;;4994657;28;19929;-95
2022/12/01 01:35:49;;;;;;;;;;;;;;;;;;4978503;28;19922;-96
2022/12/01 01:38:21;;;;;;;;;;;;;;;;;;4978220;28;19928;-94
2022/12/01 01:40:47;;;;;;;;;;;;;;;;;;4978288;28;19976;-95
2022/12/01 01:43:13;;;;;;;;;;;;;;;;;;4978065;28;19953;-95
2022/12/01 01:45:39;;;;;;;;;;;;;;;;;;4978404;28;19921;-94
2022/12/01 01:48:06;;;;;;;;;;;;;;;;;;4994646;28;20028;-96
2022/12/01 01:50:32;;;;;;;;;;;;;;;;;;4977985;28;20439;-94
2022/12/01 01:52:58;;;;;;;;;;;;;;;;;;4978424;28;19929;-96
2022/12/01 01:55:24;;;;;;;;;;;;;;;;;;4978399;28;20267;-94
2022/12/01 01:57:50;;;;;;;;;;;;;;;;;;4978481;28;19921;-96
2022/12/01 02:00:16;;;;;;;;;;;;;;;;;;4977854;28;20439;-96
2022/12/01 02:02:42;;;;;;;;;;;;;;;;;;4977742;28;19929;-96
2022/12/01 02:05:09;;;;;;;;;;;;;;;;;;4977785;28;19988;-96
2022/12/01 02:07:44;;;;;;;;;;;;;;;;;;4994212;28;19948;-95
2022/12/01 02:10:11;;;;;;;;;;;;;;;;;;4993605;28;19945;-94
2022/12/01 02:12:37;;;;;;;;;;;;;;;;;;4977310;28;19929;-95
2022/12/01 02:15:03;;;;;;;;;;;;;;;;;;4978171;28;19922;-95
2022/12/01 02:17:29;;;;;;;;;;;;;;;;;;4977720;28;20403;-96
2022/12/01 02:19:55;;;;;;;;;;;;;;;;;;4977673;28;19921;-95
2022/12/01 02:22:22;;;;;;;;;;;;;;;;;;4977640;28;20353;-96
2022/12/01 02:24:48;;;;;;;;;;;;;;;;;;4977354;28;20032;-96
2022/12/01 02:27:20;;;;;;;;;;;;;;;;;;4977996;28;19992;-95
2022/12/01 02:29:46;;;;;;;;;;;;;;;;;;4977537;28;19933;-95
2022/12/01 02:32:12;;;;;;;;;;;;;;;;;;4977320;28;19921;-95
2022/12/01 02:34:40;;;;;;;;;;;;;;;;;;4993266;28;19926;-94
2022/12/01 02:37:06;;;;;;;;;;;;;;;;;;4977134;28;20293;-95
2022/12/01 02:39:33;;;;;;;;;;;;;;;;;;4976820;28;19922;-94
2022/12/01 02:41:59;;;;;;;;;;;;;;;;;;4993156;28;19926;-94
2022/12/01 02:44:26;;;;;;;;;;;;;;;;;;5005220;28;19925;-93
2022/12/01 02:47:01;;;;;;;;;;;;;;;;;;5016767;28;20020;-95
2022/12/01 02:49:27;;;;;;;;;;;;;;;;;;5015801;28;19968;-93
2022/12/01 02:51:54;;;;;;;;;;;;;;;;;;5015600;28;19944;-94
2022/12/01 02:54:20;;;;;;;;;;;;;;;;;;5032793;28;19927;-94
2022/12/01 02:56:46;;;;;;;;;;;;;;;;;;5015653;28;20011;-94
2022/12/01 02:59:12;;;;;;;;;;;;;;;;;;5015742;28;19958;-93
2022/12/01 03:01:40;;;;;;;;;;;;;;;;;;5015680;28;19921;-95
2022/12/01 03:04:06;;;;;;;;;;;;;;;;;;5015806;28;19994;-96
2022/12/01 03:06:38;;;;;;;;;;;;;;;;;;5015412;28;20007;-95
2022/12/01 03:09:04;;;;;;;;;;;;;;;;;;5016208;28;19921;-93
2022/12/01 03:11:32;;;;;;;;;;;;;;;;;;5031905;28;22269;-95
2022/12/01 03:14:12;;;;;;;;;;;;;;;;;;5031590;28;20000;-95
2022/12/01 03:16:41;;;;;;;;;;;;;;;;;;5032545;28;19975;-96
2022/12/01 03:19:06;;;;;;;;;;;;;;;;;;5015801;28;19921;-96
2022/12/01 03:21:32;;;;;;;;;;;;;;;;;;5015697;28;20008;-96
2022/12/01 03:23:58;;;;;;;;;;;;;;;;;;5016012;28;19932;-96
2022/12/01 03:26:25;;;;;;;;;;;;;;;;;;5032467;28;20373;-96
2022/12/01 03:28:51;;;;;;;;;;;;;;;;;;5016005;28;19932;-96
2022/12/01 03:31:18;;;;;;;;;;;;;;;;;;5015725;28;19970;-96
2022/12/01 03:33:44;;;;;;;;;;;;;;;;;;5016148;28;19921;-96
2022/12/01 03:36:10;;;;;;;;;;;;;;;;;;5016028;28;19943;-96
2022/12/01 03:38:36;;;;;;;;;;;;;;;;;;5015761;28;19978;-96
2022/12/01 03:41:03;;;;;;;;;;;;;;;;;;5015682;28;19923;-96
2022/12/01 03:43:29;;;;;;;;;;;;;;;;;;5015707;28;20366;-96
2022/12/01 03:45:55;;;;;;;;;;;;;;;;;;5015746;28;20335;-95
2022/12/01 03:48:21;;;;;;;;;;;;;;;;;;5015228;28;19954;-96
2022/12/01 03:50:47;;;;;;;;;;;;;;;;;;5015510;28;20375;-95
2022/12/01 03:53:18;;;;;;;;;;;;;;;;;;5020148;28;19921;-94
2022/12/01 03:55:47;;;;;;;;;;;;;;;;;;5019882;28;19921;-93
2022/12/01 03:58:14;;;;;;;;;;;;;;;;;;5035291;28;19921;-96
2022/12/01 04:00:40;;;;;;;;;;;;;;;;;;5019479;28;19921;-96
2022/12/01 04:03:06;;;;;;;;;;;;;;;;;;5019791;28;19921;-95
2022/12/01 04:05:36;;;;;;;;;;;;;;;;;;5036006;28;19932;-96
2022/12/01 04:08:02;;;;;;;;;;;;;;;;;;5019226;28;19925;-96
2022/12/01 04:10:28;;;;;;;;;;;;;;;;;;5019297;28;19921;-96
2022/12/01 04:12:58;;;;;;;;;;;;;;;;;;5018908;28;19921;-95
2022/12/01 04:15:25;;;;;;;;;;;;;;;;;;5035353;28;19944;-94
2022/12/01 04:17:51;;;;;;;;;;;;;;;;;;5018902;28;19971;-95
2022/12/01 04:20:17;;;;;;;;;;;;;;;;;;5018803;28;19925;-95
2022/12/01 04:22:45;;;;;;;;;;;;;;;;;;5035535;28;19921;-94
2022/12/01 04:25:25;;;;;;;;;;;;;;;;;;5035719;28;19971;-95
2022/12/01 04:27:51;;;;;;;;;;;;;;;;;;5018484;28;19976;-94
2022/12/01 04:30:21;;;;;;;;;;;;;;;;;;5019110;28;19968;-94
2022/12/01 04:32:54;;;;;;;;;;;;;;;;;;5035720;28;19969;-95
2022/12/01 04:35:20;;;;;;;;;;;;;;;;;;5035271;28;19978;-96
2022/12/01 04:37:46;;;;;;;;;;;;;;;;;;5018534;28;19925;-96
2022/12/01 04:40:12;;;;;;;;;;;;;;;;;;5018338;28;19992;-96
2022/12/01 04:42:38;;;;;;;;;;;;;;;;;;5018389;28;19929;-96
2022/12/01 04:45:04;;;;;;;;;;;;;;;;;;5018654;28;19971;-95
2022/12/01 04:47:31;;;;;;;;;;;;;;;;;;5035186;28;20331;-95
2022/12/01 04:49:57;;;;;;;;;;;;;;;;;;5018484;28;20011;-94
2022/12/01 04:52:23;;;;;;;;;;;;;;;;;;5018718;28;19928;-93
2022/12/01 04:54:49;;;;;;;;;;;;;;;;;;5018503;28;19921;-94
2022/12/01 04:57:15;;;;;;;;;;;;;;;;;;5018277;28;20011;-94
2022/12/01 04:59:41;;;;;;;;;;;;;;;;;;5018273;28;19944;-93
2022/12/01 05:02:07;;;;;;;;;;;;;;;;;;5017646;28;19921;-94
2022/12/01 05:04:37;;;;;;;;;;;;;;;;;;5017282;28;19921;-93
2022/12/01 05:07:03;;;;;;;;;;;;;;;;;;5017679;28;19932;-94
2022/12/01 05:09:29;;;;;;;;;;;;;;;;;;5017641;28;19921;-94
2022/12/01 05:11:55;;;;;;;;;;;;;;;;;;5017727;28;19965;-93
2022/12/01 05:14:20;;;;;;;;;;;;;;;;;;5017878;28;19967;-94
2022/12/01 05:16:47;;;;;;;;;;;;;;;;;;5017694;28;19933;-94
2022/12/01 05:21:58;;;;;;;;;;;;;;;;;;5033966;28;19932;-94
2022/12/01 05:24:24;;;;;;;;;;;;;;;;;;5017929;28;19921;-94
2022/12/01 05:26:50;;;;;;;;;;;;;;;;;;5017899;28;20396;-94
2022/12/01 05:29:16;;;;;;;;;;;;;;;;;;5033646;28;19932;-94
2022/12/01 05:31:42;;;;;;;;;;;;;;;;;;5017094;28;19921;-95
2022/12/01 05:34:08;;;;;;;;;;;;;;;;;;5017300;28;19927;-93
2022/12/01 05:36:34;;;;;;;;;;;;;;;;;;5017395;28;19921;-93
2022/12/01 05:39:01;;;;;;;;;;;;;;;;;;5017473;28;19928;-93
2022/12/01 05:41:27;;;;;;;;;;;;;;;;;;5017570;28;19921;-92
2022/12/01 05:43:53;;;;;;;;;;;;;;;;;;5016917;28;19979;-94
2022/12/01 05:46:19;;;;;;;;;;;;;;;;;;5017253;28;19921;-93
2022/12/01 05:48:46;;;;;;;;;;;;;;;;;;5017192;28;19925;-93
2022/12/01 05:51:12;;;;;;;;;;;;;;;;;;5016610;28;19943;-93
2022/12/01 05:53:37;;;;;;;;;;;;;;;;;;5017405;28;19921;-93
2022/12/01 05:56:03;;;;;;;;;;;;;;;;;;5017800;28;20337;-94
2022/12/01 05:58:29;;;;;;;;;;;;;;;;;;5017465;28;20099;-94
2022/12/01 06:00:55;;;;;;;;;;;;;;;;;;5016674;28;19921;-94
2022/12/01 06:03:21;;;;;;;;;;;;;;;;;;5017010;28;19928;-94
2022/12/01 06:05:47;;;;;;;;;;;;;;;;;;5032298;28;19925;-95
2022/12/01 06:08:14;;;;;;;;;;;;;;;;;;5033344;28;20415;-93
2022/12/01 06:10:40;;;;;;;;;;;;;;;;;;5017319;28;19921;-94
2022/12/01 06:13:07;;;;;;;;;;;;;;;;;;5033199;28;19971;-94
2022/12/01 06:15:33;;;;;;;;;;;;;;;;;;5016892;28;19984;-94
2022/12/01 06:17:59;;;;;;;;;;;;;;;;;;5016614;28;19972;-93
2022/12/01 06:20:25;;;;;;;;;;;;;;;;;;5017051;28;19968;-90
2022/12/01 06:22:51;;;;;;;;;;;;;;;;;;5033370;28;20031;-93
2022/12/01 06:25:17;;;;;;;;;;;;;;;;;;5016514;28;19941;-93
2022/12/01 06:27:43;;;;;;;;;;;;;;;;;;5033154;28;19979;-93
2022/12/01 06:30:08;;;;;;;;;;;;;;;;;;5016608;28;19928;-93
2022/12/01 06:32:34;;;;;;;;;;;;;;;;;;5016409;28;20015;-93
2022/12/01 06:35:00;;;;;;;;;;;;;;;;;;5016203;28;19921;-94
2022/12/01 06:37:36;;;;;;;;;;;;;;;;;;5020403;28;19986;-96
2022/12/01 06:56:03;;;;;;;;;;;;;;;;;;5170798;23;19979;-93
2022/12/01 06:58:29;;;;;;;;;;;;;;;;;;5016184;28;19921;-93
2022/12/01 07:00:56;;;;;;;;;;;;;;;;;;5015895;28;19928;-94
2022/12/01 07:03:24;;;;;;;;;;;;;;;;;;5015973;28;19928;-93
2022/12/01 07:08:43;;;;;;;;;;;;;;;;;;5037577;28;19968;-96
2022/12/01 07:11:13;;;;;;;;;;;;;;;;;;5008359;28;19920;-95
2022/12/01 07:13:39;;;;;;;;;;;;;;;;;;4999526;28;19921;-94
2022/12/01 07:16:04;;;;;;;;;;;;;;;;;;4999295;28;19921;-95
2022/12/01 07:18:31;;;;;;;;;;;;;;;;;;4999120;28;19921;-93
2022/12/01 07:20:56;;;;;;;;;;;;;;;;;;4999366;28;19932;-94
2022/12/01 07:23:22;;;;;;;;;;;;;;;;;;4999017;28;19921;-95
2022/12/01 07:25:48;;;;;;;;;;;;;;;;;;4998362;28;19925;-95
2022/12/01 07:28:14;;;;;;;;;;;;;;;;;;4998903;28;19936;-95
2022/12/01 07:30:41;;;;;;;;;;;;;;;;;;5015340;28;19929;-95
2022/12/01 07:33:10;;;;;;;;;;;;;;;;;;5015043;28;20407;-95
2022/12/01 07:35:36;;;;;;;;;;;;;;;;;;5014967;28;19921;-96
2022/12/01 07:38:05;;;;;;;;;;;;;;;;;;4998636;28;19984;-94
2022/12/01 07:40:31;;;;;;;;;;;;;;;;;;5014441;28;20372;-95
2022/12/01 07:42:57;;;;;;;;;;;;;;;;;;4999355;28;19931;-96
2022/12/01 07:45:23;;;;;;;;;;;;;;;;;;4998565;28;20339;-94
2022/12/01 07:47:49;;;;;;;;;;;;;;;;;;5014959;28;19921;-93
2022/12/01 07:50:15;;;;;;;;;;;;;;;;;;5014798;28;20028;-94
2022/12/01 07:52:41;;;;;;;;;;;;;;;;;;4998777;28;19976;-94
2022/12/01 07:55:07;;;;;;;;;;;;;;;;;;5014819;28;19925;-95
2022/12/01 07:57:33;;;;;;;;;;;;;;;;;;5031503;28;19976;-94
2022/12/01 08:00:00;;;;;;;;;;;;;;;;;;4998584;28;19921;-94
2022/12/01 08:02:26;;;;;;;;;;;;;;;;;;5014981;28;19921;-95
2022/12/01 08:04:52;;;;;;;;;;;;;;;;;;4998483;28;19922;-95
2022/12/01 08:07:18;;;;;;;;;;;;;;;;;;4998332;28;19921;-95
2022/12/01 08:09:47;;;;;;;;;;;;;;;;;;4998636;28;20002;-95
2022/12/01 08:12:13;;;;;;;;;;;;;;;;;;4998243;28;19925;-95
2022/12/01 08:14:39;;;;;;;;;;;;;;;;;;4998533;28;19921;-94
2022/12/01 08:17:05;;;;;;;;;;;;;;;;;;4998276;28;19948;-95
2022/12/01 08:19:31;;;;;;;;;;;;;;;;;;4998311;28;20023;-94
2022/12/01 08:21:57;;;;;;;;;;;;;;;;;;4998167;28;19925;-94
2022/12/01 08:24:24;;;;;;;;;;;;;;;;;;5015042;28;19967;-94
2022/12/01 08:26:50;;;;;;;;;;;;;;;;;;4998654;28;20345;-94
2022/12/01 08:29:16;;;;;;;;;;;;;;;;;;4998146;28;19931;-94
2022/12/01 08:31:42;;;;;;;;;;;;;;;;;;4998442;28;20353;-94
2022/12/01 08:34:09;;;;;;;;;;;;;;;;;;4998377;28;19928;-94
2022/12/01 08:36:35;;;;;;;;;;;;;;;;;;4998301;28;20387;-94
2022/12/01 08:39:04;;;;;;;;;;;;;;;;;;5018804;28;20019;-95
2022/12/01 08:41:30;;;;;;;;;;;;;;;;;;5001792;28;20014;-94
2022/12/01 08:43:58;;;;;;;;;;;;;;;;;;5002002;28;19987;-94
2022/12/01 08:46:24;;;;;;;;;;;;;;;;;;5002379;28;20019;-93
2022/12/01 08:48:49;;;;;;;;;;;;;;;;;;5001554;28;20376;-94
2022/12/01 08:51:17;;;;;;;;;;;;;;;;;;5017968;28;19925;-94
2022/12/01 08:53:43;;;;;;;;;;;;;;;;;;5001808;28;19928;-94
2022/12/01 08:56:09;;;;;;;;;;;;;;;;;;5001208;28;19922;-95
2022/12/01 08:58:35;;;;;;;;;;;;;;;;;;5001334;28;19952;-95
2022/12/01 09:01:06;;;;;;;;;;;;;;;;;;5035462;28;19964;-94
2022/12/01 09:03:32;;;;;;;;;;;;;;;;;;5001161;28;20357;-95
2022/12/01 09:05:58;;;;;;;;;;;;;;;;;;5001545;28;19932;-94
2022/12/01 09:08:32;;;;;;;;;;;;;;;;;;5001188;28;20460;-94
2022/12/01 09:10:58;;;;;;;;;;;;;;;;;;5001423;28;20015;-93
2022/12/01 09:13:28;;;;;;;;;;;;;;;;;;5002076;28;19921;-95
2022/12/01 09:15:54;;;;;;;;;;;;;;;;;;5001637;28;19975;-95
2022/12/01 09:18:20;;;;;;;;;;;;;;;;;;5000970;28;19924;-94
2022/12/01 09:20:46;;;;;;;;;;;;;;;;;;5000878;28;19924;-94
2022/12/01 09:23:12;;;;;;;;;;;;;;;;;;5001196;28;19921;-94
2022/12/01 09:25:39;;;;;;;;;;;;;;;;;;5017490;28;19920;-94
2022/12/01 09:28:05;;;;;;;;;;;;;;;;;;5001177;28;20050;-94
2022/12/01 09:30:31;;;;;;;;;;;;;;;;;;5001544;28;19925;-93
2022/12/01 09:32:57;;;;;;;;;;;;;;;;;;5001489;28;19925;-95
2022/12/01 09:35:23;;;;;;;;;;;;;;;;;;5001656;28;20400;-94
2022/12/01 09:37:49;;;;;;;;;;;;;;;;;;5001376;28;20020;-95
2022/12/01 09:40:15;;;;;;;;;;;;;;;;;;5001245;28;19975;-95
2022/12/01 09:42:43;;;;;;;;;;;;;;;;;;5017934;28;19921;-94
2022/12/01 09:45:09;;;;;;;;;;;;;;;;;;5000992;28;20217;-95
2022/12/01 09:47:41;;;;;;;;;;;;;;;;;;5000606;28;19927;-95
2022/12/01 09:50:08;;;;;;;;;;;;;;;;;;4999828;28;20392;-95
2022/12/01 09:52:34;;;;;;;;;;;;;;;;;;5001313;28;20296;-94
2022/12/01 09:55:00;;;;;;;;;;;;;;;;;;4997211;28;20435;-94
2022/12/01 09:57:26;;;;;;;;;;;;;;;;;;4997079;28;20369;-93
2022/12/01 09:59:52;;;;;;;;;;;;;;;;;;4996989;28;19921;-94
2022/12/01 10:02:18;;;;;;;;;;;;;;;;;;4997348;28;19937;-94
2022/12/01 10:04:47;;;;;;;;;;;;;;;;;;4997864;28;19925;-94
2022/12/01 10:07:16;;;;;;;;;;;;;;;;;;5013554;28;19921;-93
2022/12/01 10:09:42;;;;;;;;;;;;;;;;;;4996635;28;19926;-93
2022/12/01 10:12:08;;;;;;;;;;;;;;;;;;4997045;28;19922;-93
2022/12/01 10:14:34;;;;;;;;;;;;;;;;;;4997071;28;19921;-93
2022/12/01 10:17:07;;;;;;;;;;;;;;;;;;5014142;28;20341;-94
2022/12/01 10:19:33;;;;;;;;;;;;;;;;;;4997440;28;19976;-93
2022/12/01 10:21:59;;;;;;;;;;;;;;;;;;4996695;28;20292;-93
2022/12/01 10:24:25;;;;;;;;;;;;;;;;;;4997858;28;20003;-93
2022/12/01 10:26:51;;;;;;;;;;;;;;;;;;4996890;28;19928;-95
2022/12/01 10:29:16;;;;;;;;;;;;;;;;;;4998214;28;19935;-94
2022/12/01 10:31:43;;;;;;;;;;;;;;;;;;5015075;28;20291;-94
2022/12/01 10:34:12;;;;;;;;;;;;;;;;;;5014984;28;19968;-95
2022/12/01 10:36:40;;;;;;;;;;;;;;;;;;4997387;28;20304;-94
2022/12/01 10:39:06;;;;;;;;;;;;;;;;;;4996624;28;20360;-94
2022/12/01 10:41:32;;;;;;;;;;;;;;;;;;4996849;28;19965;-94
2022/12/01 10:43:59;;;;;;;;;;;;;;;;;;5013209;28;19925;-93
2022/12/01 10:46:28;;;;;;;;;;;;;;;;;;5013436;28;20270;-94
2022/12/01 10:48:55;;;;;;;;;;;;;;;;;;4996166;28;19928;-94
2022/12/01 10:51:23;;;;;;;;;;;;;;;;;;4996445;28;20016;-95
2022/12/01 10:53:49;;;;;;;;;;;;;;;;;;4997003;28;19976;-95
2022/12/01 10:56:14;;;;;;;;;;;;;;;;;;4996292;28;19994;-94
2022/12/01 10:58:41;;;;;;;;;;;;;;;;;;5012883;28;19929;-94
2022/12/01 11:01:07;;;;;;;;;;;;;;;;;;4995866;28;19975;-95
2022/12/01 11:03:41;;;;;;;;;;;;;;;;;;5013093;28;19922;-94
2022/12/01 11:06:07;;;;;;;;;;;;;;;;;;4996611;28;19932;-94
2022/12/01 11:08:33;;;;;;;;;;;;;;;;;;5012474;28;19927;-95
2022/12/01 11:10:59;;;;;;;;;;;;;;;;;;4996219;28;19926;-95
2022/12/01 11:13:28;;;;;;;;;;;;;;;;;;5012824;28;19922;-94
2022/12/01 11:15:54;;;;;;;;;;;;;;;;;;4995658;28;19922;-95
2022/12/01 11:18:23;;;;;;;;;;;;;;;;;;5074005;23;19925;-93
2022/12/01 11:20:59;;;;;;;;;;;;;;;;;;5001810;28;19925;-94
2022/12/01 11:23:28;;;;;;;;;;;;;;;;;;4995489;28;19972;-95
2022/12/01 11:25:54;;;;;;;;;;;;;;;;;;5009959;28;20008;-93
2022/12/01 11:28:21;;;;;;;;;;;;;;;;;;4995328;28;20353;-93
2022/12/01 11:30:48;;;;;;;;;;;;;;;;;;5009856;28;19995;-93
2022/12/01 11:36:08;;;;;;;;;;;;;;;;;;5023786;28;20436;-90
2022/12/01 11:38:34;;;;;;;;;;;;;;;;;;5003890;28;19929;-94
2022/12/01 11:41:00;;;;;;;;;;;;;;;;;;5019373;28;19914;-93
2022/12/01 11:43:26;;;;;;;;;;;;;;;;;;5001906;28;19922;-94
2022/12/01 11:45:54;;;;;;;;;;;;;;;;;;4992857;28;19925;-94
2022/12/01 11:48:20;;;;;;;;;;;;;;;;;;4977588;28;19941;-94
2022/12/01 11:50:46;;;;;;;;;;;;;;;;;;4995602;28;19921;-94
2022/12/01 11:53:12;;;;;;;;;;;;;;;;;;5011899;28;19971;-91
2022/12/01 11:55:37;;;;;;;;;;;;;;;;;;4995030;28;20021;-91
2022/12/01 11:58:04;;;;;;;;;;;;;;;;;;5011285;28;19969;-91
2022/12/01 12:00:30;;;;;;;;;;;;;;;;;;5011210;28;20030;-91
2022/12/01 12:02:56;;;;;;;;;;;;;;;;;;4994459;28;19926;-90
2022/12/01 12:05:22;;;;;;;;;;;;;;;;;;5011432;28;20298;-91
2022/12/01 12:07:48;;;;;;;;;;;;;;;;;;4995161;28;19932;-91
2022/12/01 12:10:14;;;;;;;;;;;;;;;;;;4994609;28;19944;-91
2022/12/01 12:12:40;;;;;;;;;;;;;;;;;;4996722;28;19922;-96
2022/12/01 12:15:09;;;;;;;;;;;;;;;;;;5016340;28;19925;-95
2022/12/01 12:17:35;;;;;;;;;;;;;;;;;;4999937;28;19922;-94
2022/12/01 12:20:01;;;;;;;;;;;;;;;;;;5000197;28;19925;-94
2022/12/01 12:22:30;;;;;;;;;;;;;;;;;;5015688;28;20321;-93
2022/12/01 12:24:56;;;;;;;;;;;;;;;;;;4999090;28;19928;-94
2022/12/01 12:27:22;;;;;;;;;;;;;;;;;;4999676;28;19925;-95
2022/12/01 12:29:57;;;;;;;;;;;;;;;;;;5016850;28;19921;-93
2022/12/01 12:35:55;;;;;;;;;;;;;;;;;;5005392;28;20420;-95
2022/12/01 12:38:21;;;;;;;;;;;;;;;;;;4999338;28;19929;-93
2022/12/01 12:40:47;;;;;;;;;;;;;;;;;;4998659;28;19969;-94
2022/12/01 12:43:14;;;;;;;;;;;;;;;;;;4998800;28;19922;-93
2022/12/01 12:45:40;;;;;;;;;;;;;;;;;;5014843;28;19921;-93
2022/12/01 12:48:06;;;;;;;;;;;;;;;;;;4998632;28;19925;-93
2022/12/01 12:50:32;;;;;;;;;;;;;;;;;;4998652;28;19921;-93
2022/12/01 12:52:58;;;;;;;;;;;;;;;;;;4998355;28;19952;-93
2022/12/01 12:55:24;;;;;;;;;;;;;;;;;;4998988;28;19928;-94
2022/12/01 12:57:50;;;;;;;;;;;;;;;;;;5015144;28;19925;-94
2022/12/01 13:00:18;;;;;;;;;;;;;;;;;;5014819;28;20329;-92
2022/12/01 13:02:44;;;;;;;;;;;;;;;;;;4998007;28;19968;-94
2022/12/01 13:05:27;;;;;;;;;;;;;;;;;;;;;
2022/12/01 13:16:18;;;;;;;;;;;;;;;;;;5660421;23;20391;-92
2022/12/01 13:18:44;;;;;;;;;;;;;;;;;;5046114;23;19925;-95
2022/12/01 13:21:12;;;;;;;;;;;;;;;;;;5018439;28;19951;-96
2022/12/01 13:23:41;;;;;;;;;;;;;;;;;;5001223;28;20283;-94
2022/12/01 13:26:10;;;;;;;;;;;;;;;;;;5018087;28;20063;-93
2022/12/01 13:28:43;;;;;;;;;;;;;;;;;;5018183;28;19926;-94
2022/12/01 13:31:22;;;;;;;;;;;;;;;;;;5018932;28;20008;-94
2022/12/01 13:33:51;;;;;;;;;;;;;;;;;;5017516;28;19921;-94
2022/12/01 13:36:17;;;;;;;;;;;;;;;;;;5001161;28;19928;-94
2022/12/01 13:38:43;;;;;;;;;;;;;;;;;;5001217;28;19927;-94
2022/12/01 13:41:09;;;;;;;;;;;;;;;;;;5001021;28;20004;-95
2022/12/01 13:43:35;;;;;;;;;;;;;;;;;;5000844;28;19925;-94
2022/12/01 13:46:20;;;;;;;;;;;;;;;;;;5001957;28;19925;-95
2022/12/01 13:48:46;;;;;;;;;;;;;;;;;;5001334;28;19968;-93
2022/12/01 13:51:15;;;;;;;;;;;;;;;;;;5001254;28;19991;-94
2022/12/01 13:53:41;;;;;;;;;;;;;;;;;;5000577;28;19974;-93
2022/12/01 13:56:07;;;;;;;;;;;;;;;;;;5000498;28;19943;-93
2022/12/01 13:58:33;;;;;;;;;;;;;;;;;;5000380;28;19925;-93
2022/12/01 14:00:59;;;;;;;;;;;;;;;;;;5000285;28;19995;-93
2022/12/01 14:03:27;;;;;;;;;;;;;;;;;;5000465;28;19925;-93
2022/12/01 14:05:55;;;;;;;;;;;;;;;;;;5000837;28;19929;-93
2022/12/01 14:08:21;;;;;;;;;;;;;;;;;;5000799;28;20269;-93
2022/12/01 14:10:47;;;;;;;;;;;;;;;;;;4999993;28;20012;-94
2022/12/01 14:13:13;;;;;;;;;;;;;;;;;;5000298;28;19944;-92
2022/12/01 14:15:41;;;;;;;;;;;;;;;;;;5000387;28;20338;-93
2022/12/01 14:18:07;;;;;;;;;;;;;;;;;;5000046;28;19931;-95
2022/12/01 14:20:33;;;;;;;;;;;;;;;;;;5000119;28;20027;-94
2022/12/01 14:22:59;;;;;;;;;;;;;;;;;;5016419;28;19921;-94
2022/12/01 14:25:25;;;;;;;;;;;;;;;;;;4999716;28;19921;-93
2022/12/01 14:28:01;;;;;;;;;;;;;;;;;;5000079;28;19925;-95
2022/12/01 14:35:59;;;;;;;;;;;;;;;;;;5175068;23;20293;-93
2022/12/01 14:38:25;;;;;;;;;;;;;;;;;;4977214;28;19922;-93
2022/12/01 14:40:51;;;;;;;;;;;;;;;;;;4976561;28;19922;-93
2022/12/01 14:51:31;;;;;;;;;;;;;;;;;;5262937;23;20384;-93
2022/12/01 14:54:00;;;;;;;;;;;;;;;;;;5016400;28;19921;-92
2022/12/01 14:56:26;;;;;;;;;;;;;;;;;;4999966;28;19921;-93
2022/12/01 14:58:52;;;;;;;;;;;;;;;;;;4999270;28;19983;-92
2022/12/01 15:01:18;;;;;;;;;;;;;;;;;;4999175;28;20261;-92
2022/12/01 15:03:44;;;;;;;;;;;;;;;;;;4999337;28;19925;-93
2022/12/01 15:06:09;;;;;;;;;;;;;;;;;;4999234;28;19921;-92
2022/12/01 15:08:35;;;;;;;;;;;;;;;;;;4999274;28;19925;-92
2022/12/01 15:11:05;;;;;;;;;;;;;;;;;;4999237;28;19921;-92
2022/12/01 15:13:31;;;;;;;;;;;;;;;;;;4999293;28;20494;-93
2022/12/01 15:15:57;;;;;;;;;;;;;;;;;;4999242;28;19925;-91
2022/12/01 15:18:22;;;;;;;;;;;;;;;;;;4998427;28;20023;-92
2022/12/01 15:20:48;;;;;;;;;;;;;;;;;;4998413;28;20024;-90
2022/12/01 15:23:14;;;;;;;;;;;;;;;;;;4998793;28;19921;-89
2022/12/01 15:25:40;;;;;;;;;;;;;;;;;;5015078;28;19971;-91
2022/12/01 15:28:06;;;;;;;;;;;;;;;;;;5014999;28;19965;-90
2022/12/01 15:30:32;;;;;;;;;;;;;;;;;;5014743;28;20055;-89
2022/12/01 15:32:58;;;;;;;;;;;;;;;;;;4998503;28;20079;-89
2022/12/01 15:35:24;;;;;;;;;;;;;;;;;;4998411;28;19921;-91
2022/12/01 15:37:51;;;;;;;;;;;;;;;;;;4998558;28;19928;-91
2022/12/01 15:40:17;;;;;;;;;;;;;;;;;;5014644;28;20354;-90
2022/12/01 15:42:43;;;;;;;;;;;;;;;;;;4998197;28;20011;-88
2022/12/01 15:45:08;;;;;;;;;;;;;;;;;;4998089;28;19928;-89
2022/12/01 15:47:34;;;;;;;;;;;;;;;;;;5000116;28;19933;-88
2022/12/01 15:50:00;;;;;;;;;;;;;;;;;;5018593;28;20360;-89
2022/12/01 15:52:26;;;;;;;;;;;;;;;;;;5002272;28;20373;-92
2022/12/01 15:54:52;;;;;;;;;;;;;;;;;;5002841;28;19921;-91
2022/12/01 15:57:18;;;;;;;;;;;;;;;;;;5002578;28;20448;-91
2022/12/01 15:59:45;;;;;;;;;;;;;;;;;;5020077;28;19921;-95
2022/12/01 16:02:14;;;;;;;;;;;;;;;;;;5003417;28;19921;-93
2022/12/01 16:04:39;;;;;;;;;;;;;;;;;;5002449;28;20407;-92
2022/12/01 16:07:05;;;;;;;;;;;;;;;;;;5002043;28;20398;-92
2022/12/01 16:09:32;;;;;;;;;;;;;;;;;;5002243;28;19921;-92
2022/12/01 16:11:57;;;;;;;;;;;;;;;;;;5001867;28;20046;-93
2022/12/01 16:14:24;;;;;;;;;;;;;;;;;;5002003;28;19964;-92
2022/12/01 16:16:50;;;;;;;;;;;;;;;;;;5002293;28;20003;-92
2022/12/01 16:19:16;;;;;;;;;;;;;;;;;;5001936;28;20031;-93
2022/12/01 16:21:45;;;;;;;;;;;;;;;;;;5018653;28;19925;-92
2022/12/01 16:24:11;;;;;;;;;;;;;;;;;;5001657;28;19921;-93
2022/12/01 16:26:37;;;;;;;;;;;;;;;;;;5002059;28;19948;-91
2022/12/01 16:29:03;;;;;;;;;;;;;;;;;;5001800;28;19948;-91
2022/12/01 16:31:29;;;;;;;;;;;;;;;;;;5001709;28;20166;-92
2022/12/01 16:33:55;;;;;;;;;;;;;;;;;;5001375;28;20049;-93
2022/12/01 16:36:24;;;;;;;;;;;;;;;;;;5001713;28;19921;-91
2022/12/01 16:38:50;;;;;;;;;;;;;;;;;;5001543;28;20387;-93
2022/12/01 16:41:16;;;;;;;;;;;;;;;;;;5001449;28;19929;-93
2022/12/01 16:43:42;;;;;;;;;;;;;;;;;;5002601;28;19970;-89
2022/12/01 16:46:08;;;;;;;;;;;;;;;;;;5003174;28;19921;-91
2022/12/01 16:48:36;;;;;;;;;;;;;;;;;;5001754;28;19925;-92
2022/12/01 16:51:03;;;;;;;;;;;;;;;;;;5001730;28;19925;-91
2022/12/01 16:53:29;;;;;;;;;;;;;;;;;;5001595;28;20003;-89
2022/12/01 16:55:55;;;;;;;;;;;;;;;;;;5017745;28;20423;-90
2022/12/01 16:58:21;;;;;;;;;;;;;;;;;;5017268;28;19921;-91
2022/12/01 17:00:51;;;;;;;;;;;;;;;;;;5001134;28;20268;-91
2022/12/01 17:03:17;;;;;;;;;;;;;;;;;;5001276;28;19925;-90
2022/12/01 17:05:43;;;;;;;;;;;;;;;;;;5017412;28;20019;-89
2022/12/01 17:08:09;;;;;;;;;;;;;;;;;;5000684;28;19980;-91
2022/12/01 17:10:35;;;;;;;;;;;;;;;;;;5001053;28;19968;-89
2022/12/01 17:13:00;;;;;;;;;;;;;;;;;;5001082;28;19991;-90
2022/12/01 17:15:29;;;;;;;;;;;;;;;;;;5001072;28;19921;-90
2022/12/01 17:17:55;;;;;;;;;;;;;;;;;;5016997;28;20055;-90
2022/12/01 17:20:21;;;;;;;;;;;;;;;;;;5000652;28;19925;-92
2022/12/01 17:22:47;;;;;;;;;;;;;;;;;;5000776;28;19960;-92
2022/12/01 17:25:13;;;;;;;;;;;;;;;;;;5001039;28;19978;-91
2022/12/01 17:27:40;;;;;;;;;;;;;;;;;;5000464;28;19976;-92
2022/12/01 17:30:06;;;;;;;;;;;;;;;;;;5000622;28;20434;-91
2022/12/01 17:32:32;;;;;;;;;;;;;;;;;;5000662;28;20016;-91
2022/12/01 17:34:58;;;;;;;;;;;;;;;;;;5000757;28;20092;-92